createdAt,value
2023-02-03T00:01:50.332Z,19.85
2023-02-03T00:04:17.029Z,19.38
2023-02-03T00:06:43.974Z,19.33
2023-02-03T00:09:10.869Z,20.17
2023-02-03T00:11:37.905Z,19.20
2023-02-03T00:14:05.516Z,22.52
2023-02-03T00:16:32.307Z,19.38
2023-02-03T00:19:00.071Z,19.70
2023-02-03T00:21:26.670Z,19.10
2023-02-03T00:23:54.727Z,19.63
2023-02-03T00:26:21.400Z,19.10
2023-02-03T00:28:47.976Z,19.17
2023-02-03T00:31:19.590Z,19.23
2023-02-03T00:33:46.563Z,19.70
2023-02-03T00:36:14.825Z,19.25
2023-02-03T00:38:41.363Z,19.45
2023-02-03T00:41:08.017Z,19.92
2023-02-03T00:43:34.648Z,19.48
2023-02-03T00:46:01.345Z,19.35
2023-02-03T00:48:27.994Z,19.35
2023-02-03T00:50:54.625Z,20.00
2023-02-03T00:53:21.200Z,18.85
2023-02-03T00:55:47.786Z,18.92
2023-02-03T00:58:14.344Z,19.48
2023-02-03T01:00:40.908Z,19.08
2023-02-03T01:03:07.459Z,18.50
2023-02-03T01:05:34.043Z,18.63
2023-02-03T01:08:01.444Z,18.98
2023-02-03T01:10:29.272Z,19.40
2023-02-03T01:12:55.941Z,19.30
2023-02-03T01:15:22.562Z,18.67
2023-02-03T01:17:49.149Z,19.10
2023-02-03T01:20:17.209Z,19.15
2023-02-03T01:22:43.871Z,19.30
2023-02-03T01:25:10.452Z,19.20
2023-02-03T01:27:37.063Z,19.60
2023-02-03T01:30:04.319Z,19.83
2023-02-03T01:32:30.927Z,19.42
2023-02-03T01:34:57.617Z,19.52
2023-02-03T01:37:24.161Z,20.83
2023-02-03T01:39:50.716Z,19.70
2023-02-03T01:42:17.242Z,20.30
2023-02-03T01:44:43.810Z,20.30
2023-02-03T01:47:39.090Z,20.35
2023-02-03T01:50:11.867Z,20.73
2023-02-03T01:52:41.980Z,21.08
2023-02-03T01:55:12.855Z,20.70
2023-02-03T01:57:46.475Z,21.77
2023-02-03T02:00:13.592Z,20.58
2023-02-03T02:02:42.925Z,20.98
2023-02-03T02:05:15.411Z,20.40
2023-02-03T02:07:43.512Z,20.10
2023-02-03T02:10:10.703Z,19.70
2023-02-03T02:12:37.568Z,19.60
2023-02-03T02:15:04.727Z,20.30
2023-02-03T02:17:34.190Z,20.20
2023-02-03T02:20:31.887Z,19.95
2023-02-03T02:23:46.695Z,19.88
2023-02-03T02:26:27.346Z,19.50
2023-02-03T02:29:00.010Z,19.77
2023-02-03T02:31:53.936Z,20.20
2023-02-03T02:34:20.493Z,19.80
2023-02-03T02:36:56.001Z,19.80
2023-02-03T02:39:38.708Z,18.83
2023-02-03T02:42:14.262Z,19.33
2023-02-03T02:44:53.924Z,19.33
2023-02-03T02:47:23.309Z,19.40
2023-02-03T02:50:02.725Z,20.48
2023-02-03T02:52:32.702Z,19.63
2023-02-03T02:55:06.680Z,19.05
2023-02-03T02:57:35.223Z,19.40
2023-02-03T03:00:02.644Z,20.45
2023-02-03T03:02:33.993Z,20.20
2023-02-03T03:05:02.579Z,19.65
2023-02-03T03:07:34.789Z,20.15
2023-02-03T03:10:07.769Z,20.23
2023-02-03T03:12:45.164Z,20.05
2023-02-03T03:15:16.321Z,20.20
2023-02-03T03:17:57.883Z,19.33
2023-02-03T03:20:27.237Z,19.92
2023-02-03T03:23:01.485Z,20.42
2023-02-03T03:25:39.473Z,19.98
2023-02-03T03:28:11.626Z,20.77
2023-02-03T03:30:39.461Z,19.88
2023-02-03T03:33:08.174Z,19.05
2023-02-03T03:35:55.473Z,20.35
2023-02-03T03:38:32.012Z,19.77
2023-02-03T03:41:19.691Z,19.70
2023-02-03T03:43:49.496Z,21.65
2023-02-03T03:46:28.209Z,20.50
2023-02-03T03:48:59.574Z,22.20
2023-02-03T03:51:28.181Z,21.77
2023-02-03T03:54:00.983Z,21.55
2023-02-03T03:56:41.836Z,21.45
2023-02-03T03:59:11.380Z,21.52
2023-02-03T04:01:39.448Z,22.27
2023-02-03T04:04:10.565Z,21.85
2023-02-03T04:06:40.117Z,21.65
2023-02-03T04:09:07.328Z,21.60
2023-02-03T04:11:52.355Z,22.25
2023-02-03T04:14:18.935Z,22.30
2023-02-03T04:16:45.468Z,22.48
2023-02-03T04:19:12.016Z,21.75
2023-02-03T04:21:38.612Z,22.17
2023-02-03T04:24:05.539Z,21.60
2023-02-03T04:26:32.135Z,22.33
2023-02-03T04:28:58.656Z,22.05
2023-02-03T04:31:25.333Z,23.00
2023-02-03T04:33:51.929Z,22.42
2023-02-03T04:36:18.512Z,22.45
2023-02-03T04:38:45.051Z,22.27
2023-02-03T04:41:11.824Z,22.15
2023-02-03T04:43:38.357Z,22.50
2023-02-03T04:46:05.083Z,21.85
2023-02-03T04:48:31.636Z,21.45
2023-02-03T04:51:05.940Z,21.60
2023-02-03T04:53:33.361Z,22.67
2023-02-03T04:56:00.301Z,23.00
2023-02-03T04:58:27.392Z,22.48
2023-02-03T05:00:54.983Z,22.58
2023-02-03T05:03:24.874Z,22.02
2023-02-03T05:05:52.289Z,23.88
2023-02-03T05:08:18.832Z,23.45
2023-02-03T05:10:45.397Z,22.48
2023-02-03T05:13:12.107Z,22.60
2023-02-03T05:15:38.664Z,23.27
2023-02-03T05:18:05.249Z,23.02
2023-02-03T05:20:31.777Z,23.50
2023-02-03T05:22:59.089Z,23.85
2023-02-03T05:25:25.747Z,22.75
2023-02-03T05:27:52.297Z,22.15
2023-02-03T05:30:19.139Z,22.02
2023-02-03T05:32:45.726Z,21.40
2023-02-03T05:35:12.256Z,20.17
2023-02-03T05:37:38.820Z,21.00
2023-02-03T05:40:24.410Z,20.65
2023-02-03T05:42:50.989Z,21.48
2023-02-03T05:45:17.663Z,19.95
2023-02-03T05:47:44.204Z,20.13
2023-02-03T05:50:10.946Z,19.02
2023-02-03T05:52:37.618Z,19.40
2023-02-03T05:55:04.570Z,19.67
2023-02-03T05:57:32.355Z,19.35
2023-02-03T05:59:59.076Z,18.95
2023-02-03T06:02:25.637Z,18.80
2023-02-03T06:04:52.218Z,19.85
2023-02-03T06:07:18.746Z,19.40
2023-02-03T06:09:45.370Z,19.15
2023-02-03T06:12:11.955Z,19.25
2023-02-03T06:14:38.533Z,19.10
2023-02-03T06:17:05.119Z,19.25
2023-02-03T06:19:31.827Z,20.27
2023-02-03T06:21:58.365Z,20.02
2023-02-03T06:24:24.945Z,19.42
2023-02-03T06:26:51.491Z,19.42
2023-02-03T06:29:18.178Z,18.88
2023-02-03T06:31:44.982Z,18.67
2023-02-03T06:34:11.734Z,19.08
2023-02-03T06:36:38.328Z,19.25
2023-02-03T06:39:04.873Z,19.00
2023-02-03T06:41:32.825Z,19.95
2023-02-03T06:44:00.221Z,19.85
2023-02-03T06:46:30.159Z,19.90
2023-02-03T06:48:56.917Z,21.13
2023-02-03T06:51:24.873Z,21.88
2023-02-03T06:53:51.679Z,22.00
2023-02-03T06:56:18.289Z,22.63
2023-02-03T06:58:45.166Z,20.58
2023-02-03T07:01:11.783Z,20.90
2023-02-03T07:03:38.524Z,18.58
2023-02-03T07:06:05.379Z,19.00
2023-02-03T07:08:31.984Z,18.48
2023-02-03T07:10:58.552Z,18.63
2023-02-03T07:13:25.138Z,18.83
2023-02-03T07:15:51.889Z,18.92
2023-02-03T07:18:35.988Z,19.02
2023-02-03T07:21:07.357Z,19.63
2023-02-03T07:23:34.492Z,18.70
2023-02-03T07:26:02.989Z,18.40
2023-02-03T07:28:29.527Z,19.05
2023-02-03T07:30:56.149Z,19.48
2023-02-03T07:33:24.392Z,19.48
2023-02-03T07:35:55.107Z,18.55
2023-02-03T07:38:22.798Z,19.42
2023-02-03T07:40:49.439Z,19.88
2023-02-03T07:43:15.982Z,19.98
2023-02-03T07:45:42.885Z,19.85
2023-02-03T07:48:09.560Z,19.08
2023-02-03T07:50:36.099Z,19.00
2023-02-03T07:53:03.178Z,18.77
2023-02-03T07:55:29.841Z,20.02
2023-02-03T07:57:57.264Z,19.13
2023-02-03T08:00:24.700Z,18.35
2023-02-03T08:02:51.988Z,19.10
2023-02-03T08:05:18.886Z,19.05
2023-02-03T08:07:46.351Z,18.90
2023-02-03T08:10:15.486Z,19.60
2023-02-03T08:12:46.633Z,20.45
2023-02-03T08:15:14.217Z,20.63
2023-02-03T08:17:41.968Z,21.55
2023-02-03T08:20:09.738Z,22.58
2023-02-03T08:22:36.410Z,26.50
2023-02-03T08:25:03.917Z,26.05
2023-02-03T08:27:35.216Z,24.67
2023-02-03T08:30:01.953Z,23.77
2023-02-03T08:32:28.538Z,21.40
2023-02-03T08:34:55.109Z,20.60
2023-02-03T08:37:30.558Z,20.20
2023-02-03T08:39:57.381Z,20.10
2023-02-03T08:42:25.375Z,20.92
2023-02-03T08:44:51.951Z,20.05
2023-02-03T08:47:18.781Z,19.60
2023-02-03T08:49:45.520Z,20.90
2023-02-03T08:52:13.523Z,20.75
2023-02-03T08:54:40.168Z,21.05
2023-02-03T08:57:08.566Z,21.45
2023-02-03T08:59:37.850Z,20.75
2023-02-03T09:02:07.932Z,21.00
2023-02-03T09:04:34.526Z,21.30
2023-02-03T09:07:04.425Z,21.52
2023-02-03T09:09:32.386Z,23.10
2023-02-03T09:12:02.417Z,21.88
2023-02-03T09:14:30.429Z,23.65
2023-02-03T09:16:57.276Z,25.73
2023-02-03T09:19:24.083Z,23.85
2023-02-03T09:21:50.913Z,21.65
2023-02-03T09:24:18.644Z,20.35
2023-02-03T09:26:45.688Z,21.30
2023-02-03T09:29:13.544Z,24.20
2023-02-03T09:31:40.272Z,22.35
2023-02-03T09:34:07.049Z,29.33
2023-02-03T09:36:35.027Z,32.83
2023-02-03T09:39:02.049Z,32.90
2023-02-03T09:42:06.166Z,38.42
2023-02-03T09:44:51.652Z,35.58
2023-02-03T09:47:28.794Z,32.97
2023-02-03T09:49:58.917Z,32.78
2023-02-03T09:52:32.547Z,32.63
2023-02-03T09:55:21.564Z,30.65
2023-02-03T09:57:56.864Z,30.35
2023-02-03T10:00:28.853Z,29.38
2023-02-03T10:03:15.878Z,27.70
2023-02-03T10:06:19.920Z,27.23
2023-02-03T10:09:09.692Z,28.70
2023-02-03T10:11:53.283Z,28.17
2023-02-03T10:14:39.043Z,27.95
2023-02-03T10:17:30.229Z,29.67
2023-02-03T10:20:06.130Z,28.35
2023-02-03T10:22:38.107Z,27.20
2023-02-03T10:25:17.926Z,28.63
2023-02-03T10:27:45.241Z,27.17
2023-02-03T10:30:26.778Z,28.98
2023-02-03T10:33:11.823Z,25.98
2023-02-03T10:36:02.924Z,26.80
2023-02-03T10:38:38.534Z,25.60
2023-02-03T10:41:05.311Z,28.23
2023-02-03T10:43:48.063Z,29.52
2023-02-03T10:46:20.769Z,26.70
2023-02-03T10:48:47.795Z,26.73
2023-02-03T10:51:24.737Z,27.08
2023-02-03T10:53:53.515Z,28.17
2023-02-03T10:56:27.014Z,29.50
2023-02-03T10:58:57.032Z,34.00
2023-02-03T11:01:26.600Z,33.72
2023-02-03T11:04:01.771Z,31.65
2023-02-03T11:06:31.531Z,39.70
2023-02-03T11:08:58.553Z,40.45
2023-02-03T11:11:34.233Z,41.70
2023-02-03T11:14:03.585Z,39.13
2023-02-03T11:16:33.361Z,38.80
2023-02-03T11:19:05.728Z,41.95
2023-02-03T11:21:38.013Z,44.35
2023-02-03T11:24:25.095Z,37.97
2023-02-03T11:27:04.724Z,50.40
2023-02-03T11:29:34.711Z,42.47
2023-02-03T11:32:20.173Z,42.17
2023-02-03T11:34:58.344Z,55.28
2023-02-03T11:37:42.028Z,55.20
2023-02-03T11:40:08.532Z,53.50
2023-02-03T11:42:37.303Z,61.70
2023-02-03T11:45:25.735Z,60.90
2023-02-03T11:48:10.540Z,61.90
2023-02-03T11:50:39.650Z,66.13
2023-02-03T11:53:56.576Z,69.22
2023-02-03T11:56:51.694Z,70.68
2023-02-03T11:59:44.095Z,72.63
2023-02-03T12:02:44.672Z,85.10
2023-02-03T12:05:20.226Z,88.32
2023-02-03T12:08:30.050Z,89.80
2023-02-03T12:11:11.884Z,95.57
2023-02-03T12:14:01.203Z,94.05
2023-02-03T12:16:52.302Z,95.18
2023-02-03T12:19:29.787Z,92.47
2023-02-03T12:22:10.369Z,94.07
2023-02-03T12:24:51.415Z,88.30
2023-02-03T12:28:03.339Z,92.95
2023-02-03T12:30:42.953Z,89.72
2023-02-03T12:33:21.045Z,87.95
2023-02-03T12:35:58.798Z,88.53
2023-02-03T12:38:52.660Z,83.20
2023-02-03T12:41:40.460Z,89.15
2023-02-03T12:44:32.765Z,91.18
2023-02-03T12:47:16.189Z,93.38
2023-02-03T12:49:48.680Z,79.18
2023-02-03T12:52:22.948Z,85.95
2023-02-03T12:55:08.415Z,84.93
2023-02-03T12:57:48.850Z,81.22
2023-02-03T13:00:50.288Z,79.65
2023-02-03T13:03:19.749Z,77.15
2023-02-03T13:06:18.353Z,79.07
2023-02-03T13:08:56.235Z,73.00
2023-02-03T13:11:31.591Z,78.97
2023-02-03T13:14:11.430Z,73.72
2023-02-03T13:16:43.523Z,72.10
2023-02-03T13:19:21.835Z,70.10
2023-02-03T13:21:49.632Z,65.13
2023-02-03T13:24:16.545Z,69.03
2023-02-03T13:26:59.190Z,67.38
2023-02-03T13:29:57.745Z,65.78
2023-02-03T13:32:30.213Z,61.47
2023-02-03T13:35:33.854Z,62.72
2023-02-03T13:38:16.114Z,67.97
2023-02-03T13:41:14.160Z,66.18
2023-02-03T13:43:46.611Z,62.15
2023-02-03T13:46:26.829Z,63.55
2023-02-03T13:48:56.922Z,62.72
2023-02-03T13:51:36.499Z,59.45
2023-02-03T13:54:17.322Z,62.30
2023-02-03T13:56:58.534Z,59.25
2023-02-03T13:59:33.001Z,57.05
2023-02-03T14:02:25.831Z,59.28
2023-02-03T14:04:57.999Z,55.50
2023-02-03T14:07:40.846Z,54.10
2023-02-03T14:10:15.798Z,57.08
2023-02-03T14:12:51.185Z,56.05
2023-02-03T14:15:28.288Z,54.83
2023-02-03T14:18:00.594Z,59.45
2023-02-03T14:20:27.234Z,56.25
2023-02-03T14:22:58.981Z,62.08
2023-02-03T14:25:27.362Z,54.40
2023-02-03T14:28:07.755Z,57.85
2023-02-03T14:31:03.464Z,60.92
2023-02-03T14:33:48.288Z,50.83
2023-02-03T14:36:39.237Z,59.78
2023-02-03T14:39:37.419Z,54.83
2023-02-03T14:42:29.110Z,62.25
2023-02-03T14:45:14.470Z,61.85
2023-02-03T14:47:47.047Z,54.80
2023-02-03T14:50:28.977Z,56.05
2023-02-03T14:53:21.149Z,53.80
2023-02-03T14:56:12.348Z,111.63
2023-02-03T14:59:09.856Z,59.38
2023-02-03T15:01:36.649Z,65.72
2023-02-03T15:04:12.680Z,60.10
2023-02-03T15:06:51.154Z,54.47
2023-02-03T15:09:23.777Z,54.25
2023-02-03T15:11:50.488Z,53.55
2023-02-03T15:14:21.677Z,55.08
2023-02-03T15:16:56.011Z,59.63
2023-02-03T15:19:25.376Z,49.65
2023-02-03T15:21:52.669Z,56.38
2023-02-03T15:24:23.849Z,54.65
2023-02-03T15:26:55.937Z,51.67
2023-02-03T15:29:32.709Z,62.90
2023-02-03T15:32:11.223Z,61.58
2023-02-03T15:34:48.819Z,54.38
2023-02-03T15:37:29.952Z,52.05
2023-02-03T15:40:06.425Z,54.78
2023-02-03T15:42:36.524Z,61.08
2023-02-03T15:45:13.807Z,50.97
2023-02-03T15:47:47.026Z,51.22
2023-02-03T15:50:30.721Z,50.33
2023-02-03T15:53:04.068Z,57.13
2023-02-03T15:55:41.997Z,50.85
2023-02-03T15:58:22.287Z,60.97
2023-02-03T16:00:55.424Z,55.70
2023-02-03T16:03:47.451Z,51.55
2023-02-03T16:06:40.379Z,54.42
2023-02-03T16:09:27.387Z,41.55
2023-02-03T16:12:19.076Z,49.17
2023-02-03T16:14:46.805Z,46.90
2023-02-03T16:17:33.089Z,46.58
2023-02-03T16:20:11.500Z,46.25
2023-02-03T16:22:44.107Z,49.15
2023-02-03T16:25:29.598Z,46.22
2023-02-03T16:28:19.600Z,44.47
2023-02-03T16:31:17.563Z,44.28
2023-02-03T16:34:08.456Z,44.00
2023-02-03T16:36:59.534Z,39.47
2023-02-03T16:39:45.538Z,43.08
2023-02-03T16:42:35.234Z,44.83
2023-02-03T16:45:21.166Z,39.40
2023-02-03T16:48:06.560Z,46.63
2023-02-03T16:50:53.930Z,45.00
2023-02-03T16:53:26.345Z,51.72
2023-02-03T16:55:56.030Z,50.80
2023-02-03T16:58:23.500Z,49.78
2023-02-03T17:00:52.236Z,50.17
2023-02-03T17:03:24.229Z,46.55
2023-02-03T17:05:52.339Z,52.03
2023-02-03T17:08:21.934Z,51.95
2023-02-03T17:10:49.437Z,51.50
2023-02-03T17:13:17.829Z,51.25
2023-02-03T17:15:46.846Z,52.70
2023-02-03T17:18:17.799Z,51.00
2023-02-03T17:20:45.403Z,56.47
2023-02-03T17:23:13.474Z,71.78
2023-02-03T17:25:40.511Z,52.83
2023-02-03T17:28:09.028Z,57.42
2023-02-03T17:30:37.398Z,54.88
2023-02-03T17:33:16.640Z,54.10
2023-02-03T17:35:45.303Z,54.40
2023-02-03T17:38:14.353Z,53.75
2023-02-03T17:54:34.337Z,48.00
2023-02-03T17:57:00.858Z,49.63
2023-02-03T17:59:27.503Z,50.17
2023-02-03T18:01:54.080Z,46.45
2023-02-03T18:04:20.776Z,46.35
2023-02-03T18:06:47.334Z,46.47
2023-02-03T18:09:16.552Z,45.60
2023-02-03T18:11:43.813Z,45.63
2023-02-03T18:14:12.155Z,45.08
2023-02-03T18:16:38.909Z,46.33
2023-02-03T18:19:07.867Z,45.83
2023-02-03T18:21:37.747Z,43.70
2023-02-03T18:24:05.869Z,47.05
2023-02-03T18:26:36.981Z,45.88
2023-02-03T18:29:05.210Z,46.00
2023-02-03T18:31:32.470Z,45.28
2023-02-03T18:34:03.670Z,45.50
2023-02-03T18:36:30.627Z,46.17
2023-02-03T18:38:57.854Z,44.08
2023-02-03T18:41:25.768Z,44.05
2023-02-03T18:43:52.447Z,47.92
2023-02-03T18:46:31.753Z,44.60
2023-02-03T18:48:58.784Z,42.13
2023-02-03T18:51:26.478Z,45.22
2023-02-03T18:53:57.794Z,40.72
2023-02-03T18:56:35.140Z,39.28
2023-02-03T18:59:05.727Z,43.58
2023-02-03T19:01:32.916Z,50.00
2023-02-03T19:04:01.851Z,41.83
2023-02-03T19:06:30.577Z,36.90
2023-02-03T19:08:58.828Z,37.30
2023-02-03T19:11:27.024Z,36.75
2023-02-03T19:13:53.887Z,33.85
2023-02-03T19:16:20.560Z,70.05
2023-02-03T19:18:47.513Z,35.03
2023-02-03T19:21:14.397Z,36.80
2023-02-03T19:23:42.357Z,49.78
2023-02-03T19:26:10.193Z,64.57
2023-02-03T19:28:37.758Z,41.17
2023-02-03T19:31:15.109Z,37.45
2023-02-03T19:33:42.236Z,39.25
2023-02-03T19:36:09.797Z,34.78
2023-02-03T19:38:36.403Z,35.47
2023-02-03T19:41:03.333Z,31.55
2023-02-03T19:43:30.796Z,29.35
2023-02-03T19:45:57.327Z,29.70
2023-02-03T19:48:23.900Z,27.65
2023-02-03T19:50:50.612Z,26.40
2023-02-03T19:53:18.240Z,28.25
2023-02-03T19:55:46.273Z,25.92
2023-02-03T19:58:13.994Z,24.60
2023-02-03T20:00:41.703Z,24.13
2023-02-03T20:03:08.448Z,22.63
2023-02-03T20:05:36.284Z,22.25
2023-02-03T20:08:03.859Z,21.90
2023-02-03T20:10:32.543Z,20.45
2023-02-03T20:12:59.425Z,21.45
2023-02-03T20:15:26.910Z,21.98
2023-02-03T20:17:53.826Z,21.38
2023-02-03T20:20:20.968Z,21.00
2023-02-03T20:22:48.362Z,20.73
2023-02-03T20:25:15.444Z,20.42
2023-02-03T20:27:42.168Z,20.55
2023-02-03T20:30:09.376Z,20.95
2023-02-03T20:32:36.202Z,20.83
2023-02-03T20:35:04.480Z,21.02
2023-02-03T20:37:31.072Z,21.05
2023-02-03T20:39:57.691Z,21.17
2023-02-03T20:42:24.302Z,21.65
2023-02-03T20:44:50.876Z,24.38
2023-02-03T20:47:22.715Z,23.73
2023-02-03T20:49:49.762Z,24.63
2023-02-03T20:52:19.853Z,24.73
2023-02-03T20:54:47.865Z,23.60
2023-02-03T20:57:18.950Z,21.63
2023-02-03T20:59:46.354Z,22.88
2023-02-03T21:02:51.993Z,23.88
2023-02-03T21:05:27.379Z,20.10
2023-02-03T21:07:54.445Z,19.13
2023-02-03T21:10:24.995Z,17.92
2023-02-03T21:12:52.164Z,19.02
2023-02-03T21:15:32.087Z,18.55
2023-02-03T21:17:58.737Z,18.38
2023-02-03T21:20:31.253Z,19.85
2023-02-03T21:22:58.436Z,19.67
2023-02-03T21:25:31.732Z,20.33
2023-02-03T21:27:59.773Z,20.63
2023-02-03T21:30:30.894Z,21.38
2023-02-03T21:32:59.031Z,22.55
2023-02-03T21:35:32.131Z,22.75
2023-02-03T21:38:02.468Z,22.65
2023-02-03T21:40:33.731Z,24.33
2023-02-03T21:43:03.205Z,26.23
2023-02-03T21:45:37.900Z,25.77
2023-02-03T21:48:24.211Z,24.50
2023-02-03T21:50:51.823Z,24.17
2023-02-03T21:53:35.641Z,25.15
2023-02-03T21:56:39.985Z,27.00
2023-02-03T21:59:16.475Z,25.02
2023-02-03T22:01:43.142Z,26.02
2023-02-03T22:04:09.759Z,24.98
2023-02-03T22:06:41.906Z,26.95
2023-02-03T22:09:11.996Z,26.20
2023-02-03T22:11:38.591Z,26.17
2023-02-03T22:14:05.356Z,25.75
2023-02-03T22:16:32.265Z,26.45
2023-02-03T22:18:58.836Z,27.67
2023-02-03T22:21:26.400Z,25.75
2023-02-03T22:23:53.029Z,26.45
2023-02-03T22:26:20.191Z,26.40
2023-02-03T22:28:47.283Z,26.25
2023-02-03T22:31:15.031Z,26.50
2023-02-03T22:33:42.372Z,25.73
2023-02-03T22:36:10.613Z,27.70
2023-02-03T22:38:39.143Z,27.80
2023-02-03T22:41:06.472Z,27.92
2023-02-03T22:43:33.895Z,28.60
2023-02-03T22:46:01.829Z,27.75
2023-02-03T22:48:29.243Z,27.42
2023-02-03T22:50:56.353Z,29.25
2023-02-03T22:53:22.916Z,29.02
2023-02-03T22:55:49.448Z,29.40
2023-02-03T22:58:16.020Z,29.00
2023-02-03T23:00:42.791Z,29.00
2023-02-03T23:03:09.529Z,29.42
2023-02-03T23:05:36.137Z,29.27
2023-02-03T23:08:02.783Z,32.22
2023-02-03T23:10:31.099Z,30.13
2023-02-03T23:13:00.735Z,30.98
2023-02-03T23:15:28.100Z,29.20
2023-02-03T23:17:54.764Z,31.27
2023-02-03T23:20:21.524Z,30.35
2023-02-03T23:22:48.357Z,31.35
2023-02-03T23:25:15.118Z,29.13
2023-02-03T23:27:42.223Z,29.80
2023-02-03T23:30:09.693Z,27.83
2023-02-03T23:32:36.313Z,29.60
2023-02-03T23:35:21.396Z,27.50
2023-02-03T23:40:14.751Z,25.85
2023-02-03T23:42:41.445Z,24.02
2023-02-03T23:45:11.720Z,24.35
2023-02-03T23:47:43.103Z,24.95
2023-02-03T23:50:11.524Z,26.65
2023-02-03T23:52:38.214Z,24.33
2023-02-03T23:55:07.772Z,23.35
2023-02-03T23:57:34.481Z,23.60
